Time;durP1;ratioP1;P1;durP2;ratioP2;P2;SDS_P1;SDS_P2;PMS_P1;PMS_P2;Temp;Humidity;BMP_temperature;BMP_pressure;BME280_temperature;BME280_humidity;BME280_pressure;Samples;Min_cycle;Max_cycle;Signal;HPM_P1;HPM_P2
2021/10/16 00:00:45;;;;;;;31.93;10.60;;;5.70;99.90;;;;;;5028382;28;20456;-66
2021/10/16 00:03:12;;;;;;;15.40;9.23;;;5.70;99.90;;;;;;5034792;28;20445;-66
2021/10/16 00:05:39;;;;;;;13.53;9.77;;;5.70;99.90;;;;;;5034796;28;20444;-66
2021/10/16 00:08:06;;;;;;;23.70;10.90;;;5.70;99.90;;;;;;5034709;28;20468;-66
2021/10/16 00:10:33;;;;;;;26.43;9.70;;;5.60;99.90;;;;;;5034738;28;20523;-66
2021/10/16 00:13:00;;;;;;;25.60;10.47;;;5.60;99.90;;;;;;5018179;28;20450;-66
2021/10/16 00:15:27;;;;;;;20.70;11.93;;;5.60;99.90;;;;;;5014951;28;20441;-66
2021/10/16 00:17:55;;;;;;;20.20;10.83;;;5.50;99.90;;;;;;5014451;28;20900;-66
2021/10/16 00:20:22;;;;;;;24.83;9.87;;;5.50;99.90;;;;;;5014726;28;20441;-66
2021/10/16 00:22:48;;;;;;;22.17;9.80;;;5.50;99.90;;;;;;5015321;28;20449;-67
2021/10/16 00:25:15;;;;;;;19.10;9.03;;;5.50;99.90;;;;;;5034497;28;20445;-67
2021/10/16 00:27:42;;;;;;;19.00;9.70;;;5.50;99.90;;;;;;5034301;28;20960;-66
2021/10/16 00:30:09;;;;;;;14.47;8.47;;;5.40;99.90;;;;;;5034353;28;20857;-66
2021/10/16 00:32:36;;;;;;;17.03;9.00;;;5.40;99.90;;;;;;5034286;28;20453;-66
2021/10/16 00:35:05;;;;;;;20.73;11.53;;;5.40;99.90;;;;;;5033316;28;20452;-66
2021/10/16 00:37:31;;;;;;;19.80;9.50;;;5.30;99.90;;;;;;5014377;28;20871;-66
2021/10/16 00:39:58;;;;;;;20.77;10.73;;;5.30;99.90;;;;;;5014260;28;20453;-66
2021/10/16 00:42:25;;;;;;;17.73;10.63;;;5.30;99.90;;;;;;5014404;28;20946;-66
2021/10/16 00:44:52;;;;;;;19.13;11.00;;;5.20;99.90;;;;;;5014409;28;20473;-66
2021/10/16 00:47:19;;;;;;;28.17;11.03;;;5.20;99.90;;;;;;5018056;28;20472;-66
2021/10/16 00:49:45;;;;;;;24.93;10.30;;;5.20;99.90;;;;;;5033791;28;20440;-66
2021/10/16 00:52:13;;;;;;;20.97;11.47;;;5.20;99.90;;;;;;5033885;28;20444;-67
2021/10/16 00:54:40;;;;;;;22.23;11.47;;;5.10;99.90;;;;;;5033952;28;20441;-67
2021/10/16 00:57:10;;;;;;;15.30;10.50;;;5.10;99.90;;;;;;5033839;28;20465;-67
2021/10/16 00:59:37;;;;;;;19.87;10.60;;;5.10;99.90;;;;;;5029467;28;20505;-67
2021/10/16 01:02:04;;;;;;;20.50;12.27;;;5.10;99.90;;;;;;5014148;28;20449;-66
2021/10/16 01:04:30;;;;;;;19.70;10.40;;;5.10;99.90;;;;;;5014137;28;20476;-67
2021/10/16 01:06:58;;;;;;;16.43;9.67;;;5.10;99.90;;;;;;5013834;28;20474;-67
2021/10/16 01:09:27;;;;;;;19.87;11.70;;;5.00;99.90;;;;;;5013819;28;20477;-67
2021/10/16 01:11:54;;;;;;;21.97;11.03;;;5.00;99.90;;;;;;5021401;28;20468;-67
2021/10/16 01:14:22;;;;;;;21.20;11.00;;;5.00;99.90;;;;;;5033464;28;20445;-67
2021/10/16 01:16:51;;;;;;;18.63;11.30;;;5.00;99.90;;;;;;5033317;28;20473;-67
2021/10/16 01:19:20;;;;;;;18.67;10.80;;;4.90;99.90;;;;;;5033185;28;20484;-67
2021/10/16 01:21:49;;;;;;;14.23;9.97;;;4.90;99.90;;;;;;5033450;28;20445;-67
2021/10/16 01:24:18;;;;;;;18.43;10.70;;;4.90;99.90;;;;;;5022084;28;20453;-67
2021/10/16 01:26:47;;;;;;;21.60;10.50;;;4.80;99.90;;;;;;5013575;28;20473;-67
2021/10/16 01:29:17;;;;;;;22.63;10.53;;;4.80;99.90;;;;;;5013358;28;20437;-66
2021/10/16 01:31:44;;;;;;;22.13;10.27;;;4.80;99.90;;;;;;5013482;28;20446;-67
2021/10/16 01:34:11;;;;;;;15.67;9.33;;;4.80;99.90;;;;;;5013571;28;20445;-67
2021/10/16 01:36:43;;;;;;;21.87;10.33;;;4.70;99.90;;;;;;5026668;28;20473;-67
2021/10/16 01:39:12;;;;;;;18.87;10.60;;;4.70;99.90;;;;;;5032512;28;20484;-67
2021/10/16 01:41:39;;;;;;;19.00;10.77;;;4.70;99.90;;;;;;5032987;28;20830;-67
2021/10/16 01:44:06;;;;;;;20.77;11.90;;;4.70;99.90;;;;;;5033109;28;20449;-67
2021/10/16 01:46:33;;;;;;;18.50;11.27;;;4.60;99.90;;;;;;5032450;28;20465;-67
2021/10/16 01:49:00;;;;;;;19.03;10.63;;;4.60;99.90;;;;;;5015641;28;20959;-67
2021/10/16 01:51:27;;;;;;;17.73;10.77;;;4.60;99.90;;;;;;5013226;28;20450;-67
2021/10/16 01:53:53;;;;;;;13.77;9.67;;;4.60;99.90;;;;;;5013077;28;20445;-66
2021/10/16 01:56:21;;;;;;;21.20;11.17;;;4.60;99.90;;;;;;5021272;28;20990;-66
2021/10/16 01:58:48;;;;;;;22.97;12.00;;;4.60;99.90;;;;;;5032549;28;20880;-66
2021/10/16 02:01:15;;;;;;;16.87;10.30;;;4.50;99.90;;;;;;5032579;28;20796;-66
2021/10/16 02:03:41;;;;;;;23.57;12.43;;;4.50;99.90;;;;;;5032665;28;20445;-66
2021/10/16 02:06:09;;;;;;;16.67;10.43;;;4.50;99.90;;;;;;5025623;28;20955;-66
2021/10/16 02:08:36;;;;;;;22.63;11.10;;;4.50;99.90;;;;;;5013591;28;20956;-66
2021/10/16 02:11:03;;;;;;;17.10;10.37;;;4.50;99.90;;;;;;5012706;28;20454;-66
2021/10/16 02:13:31;;;;;;;14.63;10.23;;;4.50;99.90;;;;;;5012689;28;20450;-66
2021/10/16 02:15:58;;;;;;;21.63;11.17;;;4.40;99.90;;;;;;5012423;28;20445;-66
2021/10/16 02:18:24;;;;;;;17.27;9.90;;;4.40;99.90;;;;;;5020296;28;20480;-66
2021/10/16 02:20:51;;;;;;;18.40;11.33;;;4.40;99.90;;;;;;5032318;28;20482;-66
2021/10/16 02:23:18;;;;;;;17.50;10.97;;;4.40;99.90;;;;;;5032190;28;20448;-66
2021/10/16 02:25:44;;;;;;;15.67;11.50;;;4.40;99.90;;;;;;5032316;28;20853;-66
2021/10/16 02:28:11;;;;;;;21.47;12.00;;;4.40;99.90;;;;;;5032079;28;20445;-66
2021/10/16 02:30:39;;;;;;;15.10;10.30;;;4.40;99.90;;;;;;5024361;28;20454;-66
2021/10/16 02:33:06;;;;;;;19.97;11.77;;;4.30;99.90;;;;;;5012477;28;20469;-66
2021/10/16 02:35:32;;;;;;;12.10;9.87;;;4.30;99.90;;;;;;5012397;28;20453;-66
2021/10/16 02:37:59;;;;;;;12.50;11.23;;;4.30;99.90;;;;;;5011994;28;20473;-66
2021/10/16 02:40:26;;;;;;;20.23;12.47;;;4.30;99.90;;;;;;5012207;28;20449;-66
2021/10/16 02:42:52;;;;;;;22.10;11.80;;;4.30;99.90;;;;;;5022907;28;20969;-66
2021/10/16 02:45:19;;;;;;;20.07;11.00;;;4.30;99.90;;;;;;5031542;28;20810;-66
2021/10/16 02:47:47;;;;;;;16.07;11.23;;;4.30;99.90;;;;;;5031716;28;20465;-66
2021/10/16 02:50:14;;;;;;;12.43;9.13;;;4.30;99.90;;;;;;5031874;28;20445;-66
2021/10/16 02:52:41;;;;;;;19.10;10.03;;;4.20;99.90;;;;;;5031757;28;20449;-67
2021/10/16 02:55:08;;;;;;;19.33;12.37;;;4.20;99.90;;;;;;5018139;28;20808;-66
2021/10/16 02:57:35;;;;;;;15.90;9.90;;;4.20;99.90;;;;;;5011744;28;20913;-66
2021/10/16 03:00:01;;;;;;;21.63;12.03;;;4.10;99.90;;;;;;5010951;28;20481;-66
2021/10/16 03:02:28;;;;;;;15.60;9.97;;;4.10;99.90;;;;;;5012051;28;20453;-66
2021/10/16 03:04:56;;;;;;;17.60;11.73;;;4.10;99.90;;;;;;5011902;28;20849;-66
2021/10/16 03:07:23;;;;;;;22.07;11.13;;;4.10;99.90;;;;;;5025229;28;20473;-66
2021/10/16 03:09:49;;;;;;;22.50;12.00;;;4.10;99.90;;;;;;5030746;28;20445;-66
2021/10/16 03:12:17;;;;;;;17.20;11.93;;;4.10;99.90;;;;;;5031608;28;20441;-66
2021/10/16 03:14:43;;;;;;;13.20;9.87;;;4.10;99.90;;;;;;5031387;28;20931;-66
2021/10/16 03:17:10;;;;;;;14.90;9.63;;;4.00;99.90;;;;;;5031366;28;20595;-66
2021/10/16 03:19:37;;;;;;;14.10;10.20;;;4.00;99.90;;;;;;5013546;28;20484;-66
2021/10/16 03:22:05;;;;;;;15.43;9.53;;;4.00;99.90;;;;;;5011739;28;20500;-66
2021/10/16 03:24:32;;;;;;;16.17;10.93;;;4.00;99.90;;;;;;5011800;28;20525;-66
2021/10/16 03:26:58;;;;;;;19.67;11.13;;;3.90;99.90;;;;;;5011701;28;20461;-66
2021/10/16 03:29:25;;;;;;;17.33;12.23;;;3.90;99.90;;;;;;5012467;28;20971;-66
2021/10/16 03:31:52;;;;;;;17.20;10.30;;;3.90;99.90;;;;;;5031272;28;20444;-66
2021/10/16 03:34:18;;;;;;;19.70;10.60;;;3.90;99.90;;;;;;5031382;28;20452;-66
2021/10/16 03:36:45;;;;;;;13.53;10.77;;;3.90;99.90;;;;;;5031298;28;20457;-66
2021/10/16 03:39:13;;;;;;;27.00;11.37;;;3.90;99.90;;;;;;5031105;28;20477;-66
2021/10/16 03:41:40;;;;;;;20.83;12.00;;;3.80;99.90;;;;;;5025250;28;20449;-66
2021/10/16 03:44:07;;;;;;;17.20;11.57;;;3.80;99.90;;;;;;5011607;28;20860;-66
2021/10/16 03:46:34;;;;;;;15.00;10.77;;;3.80;99.90;;;;;;5011422;28;20972;-66
2021/10/16 03:49:00;;;;;;;16.20;11.03;;;3.80;99.90;;;;;;5011252;28;20438;-66
2021/10/16 03:51:27;;;;;;;13.80;11.23;;;3.70;99.90;;;;;;5011514;28;20450;-66
2021/10/16 03:53:54;;;;;;;12.83;10.07;;;3.70;99.90;;;;;;5021109;28;20477;-67
2021/10/16 03:56:22;;;;;;;19.33;10.30;;;3.70;99.90;;;;;;5030977;28;20471;-67
2021/10/16 03:58:49;;;;;;;16.67;12.13;;;3.70;99.90;;;;;;5030762;28;20485;-66
2021/10/16 04:01:15;;;;;;;23.30;14.67;;;3.70;99.90;;;;;;5029022;28;20444;-66
2021/10/16 04:03:42;;;;;;;13.20;9.57;;;3.70;99.90;;;;;;5011366;28;20473;-66
2021/10/16 04:06:09;;;;;;;22.33;14.70;;;3.70;99.90;;;;;;5011512;28;20470;-67
2021/10/16 04:08:35;;;;;;;23.23;14.40;;;3.70;99.90;;;;;;5011213;28;20441;-67
2021/10/16 04:11:02;;;;;;;18.90;11.97;;;3.70;99.90;;;;;;5014028;28;20454;-66
2021/10/16 04:13:30;;;;;;;16.20;10.57;;;3.70;99.90;;;;;;5034595;28;20471;-67
2021/10/16 04:15:57;;;;;;;17.57;10.60;;;3.70;99.90;;;;;;5034438;28;20445;-68
2021/10/16 04:18:23;;;;;;;20.97;12.20;;;3.70;99.90;;;;;;5035020;28;20445;-67
2021/10/16 04:20:51;;;;;;;16.67;11.40;;;3.60;99.90;;;;;;5034592;28;20451;-68
2021/10/16 04:23:18;;;;;;;19.10;13.67;;;3.60;99.90;;;;;;5030994;28;20974;-68
2021/10/16 04:25:45;;;;;;;17.43;13.27;;;3.60;99.90;;;;;;5020899;28;20457;-67
2021/10/16 04:28:11;;;;;;;21.60;14.47;;;3.60;99.90;;;;;;5022721;28;20450;-67
2021/10/16 04:30:39;;;;;;;26.70;16.07;;;3.60;99.90;;;;;;5014715;28;20940;-69
2021/10/16 04:33:06;;;;;;;23.70;13.60;;;3.60;99.90;;;;;;5014697;28;20446;-68
2021/10/16 04:35:33;;;;;;;15.90;12.47;;;3.60;99.90;;;;;;5017063;28;20457;-67
2021/10/16 04:37:59;;;;;;;20.73;11.03;;;3.50;99.90;;;;;;5033652;28;20475;-67
2021/10/16 04:40:27;;;;;;;20.20;14.53;;;3.50;99.90;;;;;;5034078;28;20996;-67
2021/10/16 04:42:54;;;;;;;19.43;10.90;;;3.50;99.90;;;;;;5030987;28;20456;-66
2021/10/16 04:45:22;;;;;;;25.40;14.90;;;3.50;99.90;;;;;;5022441;28;21018;-66
2021/10/16 04:47:51;;;;;;;23.07;11.20;;;3.50;99.90;;;;;;5014821;28;20480;-66
2021/10/16 04:50:18;;;;;;;19.27;11.53;;;3.50;99.90;;;;;;5002632;28;20442;-66
2021/10/16 04:52:44;;;;;;;24.17;14.40;;;3.50;99.90;;;;;;5002663;28;20568;-67
2021/10/16 04:55:12;;;;;;;33.37;14.87;;;3.50;99.90;;;;;;5002795;28;20456;-68
2021/10/16 04:57:39;;;;;;;22.87;15.17;;;3.50;99.90;;;;;;5002912;28;20904;-68
2021/10/16 05:00:07;;;;;;;32.67;16.13;;;3.50;99.90;;;;;;5011581;28;20507;-67
2021/10/16 05:02:34;;;;;;;25.50;16.53;;;3.50;99.90;;;;;;5022882;28;20510;-67
2021/10/16 05:05:03;;;;;;;26.40;17.70;;;3.40;99.90;;;;;;5022986;28;20449;-67
2021/10/16 05:07:30;;;;;;;20.47;13.53;;;3.40;99.90;;;;;;5022492;28;21147;-68
2021/10/16 05:09:57;;;;;;;26.20;12.90;;;3.40;99.90;;;;;;5021732;28;20531;-68
2021/10/16 05:12:24;;;;;;;18.43;12.40;;;3.30;99.90;;;;;;5008152;28;20458;-68
2021/10/16 05:14:51;;;;;;;29.77;14.27;;;3.30;99.90;;;;;;5002290;28;20458;-66
2021/10/16 05:17:18;;;;;;;26.10;15.93;;;3.30;99.90;;;;;;5001886;28;20961;-68
2021/10/16 05:19:44;;;;;;;18.10;11.97;;;3.30;99.90;;;;;;5001807;28;20851;-68
2021/10/16 05:22:13;;;;;;;23.17;12.77;;;3.30;99.90;;;;;;5000979;28;20480;-68
2021/10/16 05:24:40;;;;;;;21.50;12.60;;;3.40;99.90;;;;;;5002147;28;20458;-69
2021/10/16 05:27:07;;;;;;;24.90;12.87;;;3.30;99.90;;;;;;5001839;28;21175;-70
2021/10/16 05:29:33;;;;;;;24.33;15.57;;;3.30;99.90;;;;;;5001621;28;20458;-69
2021/10/16 05:32:00;;;;;;;24.00;14.30;;;3.30;99.90;;;;;;5001814;28;20445;-69
2021/10/16 05:34:27;;;;;;;28.73;14.80;;;3.30;99.90;;;;;;5002521;28;20490;-70
2021/10/16 05:36:54;;;;;;;25.20;12.43;;;3.30;99.90;;;;;;5002298;28;20476;-69
2021/10/16 05:39:22;;;;;;;21.70;11.93;;;3.40;99.90;;;;;;5001587;28;20496;-69
2021/10/16 05:41:48;;;;;;;25.00;14.60;;;3.40;99.90;;;;;;5001461;28;20446;-68
2021/10/16 05:44:15;;;;;;;23.03;14.43;;;3.40;99.90;;;;;;5001603;28;20450;-68
2021/10/16 05:46:42;;;;;;;27.03;14.10;;;3.40;99.90;;;;;;5003499;28;20486;-67
2021/10/16 05:49:09;;;;;;;17.97;12.53;;;3.50;99.90;;;;;;5020900;28;20899;-67
2021/10/16 05:51:36;;;;;;;18.83;12.37;;;3.50;99.90;;;;;;5021113;28;20824;-67
2021/10/16 05:54:03;;;;;;;30.00;15.30;;;3.50;99.90;;;;;;5020768;28;20449;-68
2021/10/16 05:56:32;;;;;;;24.50;13.97;;;3.60;99.90;;;;;;5020793;28;20469;-69
2021/10/16 05:58:59;;;;;;;17.03;11.20;;;3.60;99.90;;;;;;5016332;28;20544;-67
2021/10/16 06:01:27;;;;;;;21.37;12.60;;;3.70;99.90;;;;;;5001209;28;20632;-68
2021/10/16 06:03:54;;;;;;;26.53;16.17;;;3.70;99.90;;;;;;5000940;28;20543;-68
2021/10/16 06:06:20;;;;;;;29.20;15.07;;;3.80;99.90;;;;;;5001794;28;20951;-66
2021/10/16 06:08:47;;;;;;;25.27;13.67;;;3.90;99.90;;;;;;5000767;28;20453;-68
2021/10/16 06:11:15;;;;;;;23.30;12.37;;;3.90;99.90;;;;;;5005955;28;20445;-69
2021/10/16 06:13:45;;;;;;;14.90;11.13;;;4.00;99.90;;;;;;5020459;28;20452;-69
2021/10/16 06:16:13;;;;;;;16.77;11.17;;;4.10;99.90;;;;;;5020417;28;20480;-68
2021/10/16 06:18:43;;;;;;;12.80;9.67;;;4.20;99.90;;;;;;5020101;28;20913;-69
2021/10/16 06:21:10;;;;;;;26.57;12.50;;;4.20;99.90;;;;;;5002105;28;20599;-69
2021/10/16 06:23:38;;;;;;;18.63;11.50;;;4.30;99.90;;;;;;5002498;28;20857;-69
2021/10/16 06:26:06;;;;;;;14.50;11.73;;;4.40;99.90;;;;;;5015835;28;20454;-67
2021/10/16 06:28:33;;;;;;;14.83;11.73;;;4.40;99.90;;;;;;5005371;28;20948;-66
2021/10/16 06:31:01;;;;;;;17.47;11.23;;;4.60;99.90;;;;;;5017685;28;20449;-66
2021/10/16 06:33:29;;;;;;;18.33;11.50;;;4.70;99.90;;;;;;5019713;28;20449;-67
2021/10/16 06:35:56;;;;;;;23.80;13.43;;;4.80;99.90;;;;;;5020143;28;20524;-67
2021/10/16 06:38:23;;;;;;;26.17;15.37;;;4.90;99.90;;;;;;5019901;28;20468;-67
2021/10/16 06:40:50;;;;;;;23.93;13.73;;;5.00;99.90;;;;;;5021586;28;20480;-65
2021/10/16 06:43:17;;;;;;;31.73;14.80;;;5.10;99.90;;;;;;5026440;28;20463;-67
2021/10/16 06:45:44;;;;;;;36.37;16.60;;;5.20;99.90;;;;;;5023880;28;20457;-66
2021/10/16 06:48:12;;;;;;;31.57;16.07;;;5.30;99.90;;;;;;5024980;28;20481;-67
2021/10/16 06:50:38;;;;;;;27.40;16.90;;;5.40;99.90;;;;;;5024871;28;20775;-66
2021/10/16 06:53:05;;;;;;;37.93;17.10;;;5.50;99.90;;;;;;5018835;28;20444;-67
2021/10/16 06:55:32;;;;;;;48.80;15.43;;;5.60;99.90;;;;;;5000076;28;20461;-67
2021/10/16 06:57:59;;;;;;;37.83;15.90;;;5.70;99.90;;;;;;5000554;28;20466;-67
2021/10/16 07:00:25;;;;;;;29.43;15.73;;;5.80;99.90;;;;;;5003742;28;20509;-67
2021/10/16 07:02:52;;;;;;;47.40;17.63;;;5.90;99.90;;;;;;5009670;28;20460;-66
2021/10/16 07:05:21;;;;;;;24.87;13.80;;;5.90;99.90;;;;;;5000003;28;20762;-68
2021/10/16 07:07:48;;;;;;;35.37;15.47;;;6.00;99.90;;;;;;4999803;28;20477;-65
2021/10/16 07:10:15;;;;;;;32.40;14.60;;;6.20;99.90;;;;;;4999908;28;20446;-70
2021/10/16 07:12:42;;;;;;;20.50;13.20;;;6.30;99.90;;;;;;5009678;28;20457;-68
2021/10/16 07:15:09;;;;;;;33.20;15.10;;;6.30;99.90;;;;;;5019133;28;20453;-69
2021/10/16 07:17:36;;;;;;;38.83;14.23;;;6.50;99.90;;;;;;5019466;28;20488;-70
2021/10/16 07:20:05;;;;;;;26.83;12.63;;;6.60;99.90;;;;;;5019029;28;20531;-67
2021/10/16 07:22:33;;;;;;;22.83;14.77;;;6.70;99.90;;;;;;5020171;28;20441;-67
2021/10/16 07:25:02;;;;;;;26.47;13.97;;;6.80;99.90;;;;;;5007512;28;20895;-65
2021/10/16 07:27:30;;;;;;;24.83;12.23;;;6.80;99.90;;;;;;4999726;28;20967;-66
2021/10/16 07:29:59;;;;;;;17.70;10.53;;;6.80;99.90;;;;;;4999569;28;20461;-67
2021/10/16 07:32:25;;;;;;;17.00;11.03;;;7.00;99.90;;;;;;4999664;28;20552;-66
2021/10/16 07:34:52;;;;;;;18.80;10.37;;;7.00;99.90;;;;;;4999774;28;20461;-67
2021/10/16 07:37:19;;;;;;;19.30;12.17;;;7.10;99.90;;;;;;5012316;28;21246;-67
2021/10/16 07:39:47;;;;;;;17.43;13.50;;;7.20;99.90;;;;;;5019084;28;20442;-66
2021/10/16 07:42:14;;;;;;;15.20;10.33;;;7.20;99.90;;;;;;5019451;28;20449;-66
2021/10/16 07:44:41;;;;;;;23.23;15.13;;;7.30;99.90;;;;;;5020117;28;20453;-67
2021/10/16 07:47:08;;;;;;;24.40;14.57;;;7.50;99.90;;;;;;5023047;28;20469;-66
2021/10/16 07:49:35;;;;;;;14.43;11.00;;;7.70;99.90;;;;;;5009416;28;20458;-66
2021/10/16 07:52:02;;;;;;;45.97;12.33;;;7.90;99.90;;;;;;5003478;28;20520;-66
2021/10/16 07:54:29;;;;;;;20.90;12.33;;;8.00;99.90;;;;;;5003592;28;20453;-66
2021/10/16 07:57:01;;;;;;;17.60;13.27;;;8.30;99.90;;;;;;5006957;28;20473;-67
2021/10/16 07:59:27;;;;;;;15.93;13.87;;;8.40;99.90;;;;;;5022982;28;20453;-66
2021/10/16 08:01:55;;;;;;;15.90;14.10;;;8.60;99.90;;;;;;5022758;28;20507;-67
2021/10/16 08:04:23;;;;;;;15.10;12.93;;;8.70;99.90;;;;;;5022879;28;20452;-68
2021/10/16 08:06:50;;;;;;;20.03;14.60;;;8.70;99.90;;;;;;5020154;28;20962;-66
2021/10/16 08:09:17;;;;;;;16.33;14.83;;;8.70;99.90;;;;;;5002995;28;20890;-66
2021/10/16 08:11:43;;;;;;;15.30;13.80;;;8.80;99.90;;;;;;5003184;28;20449;-66
2021/10/16 08:14:12;;;;;;;18.10;14.80;;;8.90;99.90;;;;;;5003215;28;20452;-67
2021/10/16 08:16:38;;;;;;;19.20;15.97;;;8.90;99.90;;;;;;5002745;28;20923;-69
2021/10/16 08:19:06;;;;;;;19.00;16.87;;;9.00;99.90;;;;;;5007233;28;20452;-67
2021/10/16 08:21:34;;;;;;;22.67;16.60;;;9.10;99.90;;;;;;5023105;28;21077;-69
2021/10/16 08:24:01;;;;;;;33.53;19.50;;;9.20;99.90;;;;;;5023602;28;20449;-69
2021/10/16 08:26:28;;;;;;;19.07;16.90;;;9.10;99.90;;;;;;5019848;28;20484;-68
2021/10/16 08:28:55;;;;;;;23.50;21.00;;;9.30;99.90;;;;;;5022263;28;20772;-68
2021/10/16 08:31:23;;;;;;;24.00;17.53;;;9.40;99.90;;;;;;5022546;28;20433;-69
2021/10/16 08:33:50;;;;;;;20.50;18.80;;;9.50;99.90;;;;;;5022708;28;20440;-68
2021/10/16 08:36:17;;;;;;;23.77;18.77;;;9.60;99.90;;;;;;5023155;28;20468;-70
2021/10/16 08:38:44;;;;;;;22.00;19.90;;;9.70;99.90;;;;;;5002547;28;20452;-68
2021/10/16 08:41:11;;;;;;;27.20;21.20;;;9.80;99.90;;;;;;5003347;28;20481;-68
2021/10/16 08:43:37;;;;;;;24.10;21.70;;;9.90;99.90;;;;;;5002396;28;20460;-70
2021/10/16 08:46:04;;;;;;;24.83;22.20;;;10.00;99.90;;;;;;5002377;28;20493;-67
2021/10/16 08:48:34;;;;;;;34.37;22.93;;;10.00;99.90;;;;;;5005972;28;20941;-65
2021/10/16 08:51:02;;;;;;;24.97;22.53;;;9.90;99.90;;;;;;5022597;28;20817;-65
2021/10/16 08:53:29;;;;;;;23.83;21.33;;;9.90;99.90;;;;;;5022188;28;20449;-67
2021/10/16 08:55:56;;;;;;;30.50;23.00;;;10.10;99.90;;;;;;5021115;28;20510;-67
2021/10/16 08:58:23;;;;;;;25.97;23.17;;;10.10;99.90;;;;;;5021502;28;20456;-65
2021/10/16 09:00:52;;;;;;;27.43;23.80;;;10.20;99.90;;;;;;5014621;28;20481;-66
2021/10/16 09:03:23;;;;;;;36.60;25.80;;;10.30;99.90;;;;;;5002229;28;20579;-67
2021/10/16 09:06:11;;;;;;;28.70;26.20;;;10.30;99.90;;;;;;5001895;28;20488;-68
2021/10/16 09:08:44;;;;;;;26.90;24.60;;;10.40;99.90;;;;;;5002336;28;20540;-67
2021/10/16 09:11:19;;;;;;;30.00;23.57;;;10.50;99.90;;;;;;5004486;28;20461;-67
2021/10/16 09:13:48;;;;;;;27.90;25.30;;;10.50;99.90;;;;;;5017645;28;20587;-66
2021/10/16 09:16:37;;;;;;;27.37;24.57;;;10.60;99.90;;;;;;5021272;28;20485;-66
2021/10/16 09:19:09;;;;;;;27.83;23.20;;;10.80;99.90;;;;;;5021452;28;20449;-66
2021/10/16 09:21:40;;;;;;;29.23;26.30;;;10.80;99.90;;;;;;5021563;28;20898;-68
2021/10/16 09:24:19;;;;;;;32.50;26.27;;;11.00;99.90;;;;;;5021562;28;20445;-69
2021/10/16 09:26:49;;;;;;;29.47;26.10;;;11.10;99.90;;;;;;4982045;28;20470;-69
2021/10/16 09:29:17;;;;;;;31.33;27.97;;;11.20;99.90;;;;;;4981823;28;21023;-70
2021/10/16 09:31:46;;;;;;;30.50;27.80;;;11.30;99.90;;;;;;4981944;28;20450;-63
2021/10/16 09:34:13;;;;;;;30.33;27.23;;;11.80;99.90;;;;;;5009406;28;20453;-67
2021/10/16 09:36:43;;;;;;;32.30;28.10;;;11.80;99.90;;;;;;5021387;28;20475;-63
2021/10/16 09:39:17;;;;;;;34.53;30.93;;;11.80;99.90;;;;;;5020844;28;20457;-64
2021/10/16 09:41:45;;;;;;;35.30;31.60;;;11.60;99.90;;;;;;5021318;28;21024;-63
2021/10/16 09:44:23;;;;;;;34.30;31.20;;;11.60;99.90;;;;;;5007827;28;20457;-63
2021/10/16 09:47:05;;;;;;;32.53;29.03;;;11.80;99.90;;;;;;5001045;28;20976;-63
2021/10/16 09:49:35;;;;;;;33.23;29.83;;;12.00;99.90;;;;;;5000874;28;20457;-65
2021/10/16 09:52:05;;;;;;;34.53;31.23;;;12.00;99.90;;;;;;5001064;28;20442;-63
2021/10/16 09:54:34;;;;;;;35.20;31.60;;;12.00;99.90;;;;;;5001798;28;20457;-63
2021/10/16 09:57:05;;;;;;;38.57;34.37;;;12.20;99.90;;;;;;5020798;28;21236;-63
2021/10/16 09:59:33;;;;;;;37.20;33.43;;;12.20;99.90;;;;;;5020544;28;20449;-62
2021/10/16 10:02:02;;;;;;;35.20;31.20;;;12.00;99.90;;;;;;5020709;28;21013;-64
2021/10/16 10:04:32;;;;;;;37.83;34.30;;;11.80;99.90;;;;;;5020980;28;20794;-64
2021/10/16 10:06:59;;;;;;;36.57;33.27;;;12.00;99.90;;;;;;5019172;28;20786;-64
2021/10/16 10:09:29;;;;;;;35.90;32.47;;;12.60;99.90;;;;;;5000212;28;20446;-65
2021/10/16 10:11:56;;;;;;;40.10;35.43;;;13.20;99.90;;;;;;5000872;28;20461;-67
2021/10/16 10:14:24;;;;;;;38.30;32.97;;;13.30;99.90;;;;;;5000787;28;20913;-65
2021/10/16 10:16:54;;;;;;;38.03;34.07;;;13.20;99.90;;;;;;5043575;22;20460;-63
2021/10/16 10:19:23;;;;;;;38.27;34.27;;;13.40;99.90;;;;;;5047987;28;20449;-64
2021/10/16 10:21:51;;;;;;;38.73;34.83;;;13.60;99.90;;;;;;5060139;28;20611;-65
2021/10/16 10:24:18;;;;;;;37.93;34.13;;;13.70;99.90;;;;;;5059966;28;20932;-64
2021/10/16 10:26:49;;;;;;;38.87;35.20;;;13.80;99.90;;;;;;5061904;28;20467;-64
2021/10/16 10:29:18;;;;;;;43.30;38.73;;;14.30;99.90;;;;;;5080167;28;20478;-63
2021/10/16 10:31:59;;;;;;;38.80;34.80;;;14.60;99.90;;;;;;5069856;28;20900;-63
2021/10/16 10:34:33;;;;;;;40.10;36.30;;;14.80;99.90;;;;;;5060158;28;20798;-63
2021/10/16 10:37:05;;;;;;;41.53;37.37;;;14.70;99.90;;;;;;5060152;28;20480;-63
2021/10/16 10:39:57;;;;;;;37.63;34.00;;;14.70;99.90;;;;;;5054796;28;20448;-61
2021/10/16 10:42:56;;;;;;;39.33;35.60;;;15.00;99.90;;;;;;5039948;28;20479;-64
2021/10/16 10:45:31;;;;;;;41.23;37.00;;;15.30;99.90;;;;;;5040115;28;20439;-63
2021/10/16 10:48:13;;;;;;;40.47;36.50;;;15.30;99.90;;;;;;5040295;28;20460;-64
2021/10/16 10:51:02;;;;;;;43.13;39.07;;;15.10;99.90;;;;;;5054892;28;20888;-64
2021/10/16 10:53:42;;;;;;;41.10;37.43;;;15.10;99.90;;;;;;5059983;28;21046;-63
2021/10/16 10:56:21;;;;;;;42.17;38.07;;;15.00;99.90;;;;;;5059650;28;20443;-62
2021/10/16 10:59:12;;;;;;;44.83;40.43;;;14.90;99.90;;;;;;5059440;28;20459;-67
2021/10/16 11:02:03;;;;;;;41.77;37.93;;;15.30;99.90;;;;;;5051766;28;20487;-63
2021/10/16 11:04:43;;;;;;;45.50;40.80;;;15.60;99.90;;;;;;5040049;28;20505;-68
2021/10/16 11:07:13;;;;;;;48.60;43.97;;;15.80;99.90;;;;;;5039915;28;20925;-65
2021/10/16 11:09:41;;;;;;;46.87;42.27;;;16.00;99.90;;;;;;5040114;28;21330;-64
2021/10/16 11:12:09;;;;;;;43.13;38.83;;;15.70;99.90;;;;;;5040582;28;20452;-65
2021/10/16 11:14:39;;;;;;;44.30;39.90;;;16.00;99.90;;;;;;5040450;28;20452;-64
2021/10/16 11:17:08;;;;;;;45.17;40.90;;;16.60;99.90;;;;;;5039951;28;20476;-65
2021/10/16 11:19:54;;;;;;;47.77;43.20;;;17.90;99.90;;;;;;5043250;28;20454;-66
2021/10/16 11:22:24;;;;;;;49.93;45.43;;;19.50;99.20;;;;;;5059680;28;20487;-65
2021/10/16 11:25:00;;;;;;;45.90;41.70;;;21.10;92.80;;;;;;5059515;28;20542;-65
2021/10/16 11:27:27;;;;;;;42.60;38.93;;;22.60;80.80;;;;;;5059505;28;20907;-63
2021/10/16 11:29:55;;;;;;;45.40;41.33;;;23.40;69.40;;;;;;5059639;28;20912;-64
2021/10/16 11:32:25;;;;;;;45.67;41.57;;;23.10;68.00;;;;;;5059505;28;20818;-63
2021/10/16 11:34:57;;;;;;;47.10;43.00;;;23.50;62.00;;;;;;5058378;28;20447;-63
2021/10/16 11:37:46;;;;;;;44.40;40.70;;;24.80;59.10;;;;;;5049282;28;20582;-66
2021/10/16 11:40:16;;;;;;;47.23;43.23;;;25.70;55.80;;;;;;5044856;28;20456;-67
2021/10/16 11:42:48;;;;;;;46.73;42.07;;;25.60;53.00;;;;;;5058626;28;20514;-64
2021/10/16 11:45:19;;;;;;;44.20;40.40;;;24.50;53.10;;;;;;5060595;28;20448;-67
2021/10/16 11:47:52;;;;;;;44.30;40.33;;;23.40;54.40;;;;;;5059238;28;20580;-65
2021/10/16 11:50:21;;;;;;;41.43;38.17;;;23.40;57.00;;;;;;5044110;28;20952;-65
2021/10/16 11:52:51;;;;;;;43.80;39.90;;;24.00;55.10;;;;;;5042486;28;20801;-70
2021/10/16 11:55:22;;;;;;;37.83;34.70;;;23.60;53.70;;;;;;5051236;28;20448;-68
2021/10/16 11:57:50;;;;;;;35.10;32.30;;;22.30;55.20;;;;;;5039375;28;20467;-65
2021/10/16 12:00:26;;;;;;;35.37;32.23;;;21.80;55.60;;;;;;5040426;28;20444;-66
2021/10/16 12:02:55;;;;;;;32.80;30.17;;;21.50;56.10;;;;;;5040286;28;20606;-65
2021/10/16 12:05:24;;;;;;;30.60;28.03;;;21.70;56.40;;;;;;5056019;28;20580;-65
2021/10/16 12:07:51;;;;;;;27.97;25.90;;;22.90;54.70;;;;;;5058624;28;20476;-66
2021/10/16 12:10:20;;;;;;;26.00;24.00;;;23.20;53.00;;;;;;5054894;28;20448;-65
2021/10/16 12:13:02;;;;;;;21.90;20.57;;;22.70;51.40;;;;;;5039643;28;20451;-65
2021/10/16 12:15:45;;;;;;;25.17;23.27;;;22.20;51.50;;;;;;5056979;28;20462;-66
2021/10/16 12:18:33;;;;;;;25.00;23.00;;;22.60;51.40;;;;;;5044113;28;20838;-66
2021/10/16 12:21:02;;;;;;;26.07;23.87;;;21.30;51.60;;;;;;5034633;28;20510;-64
2021/10/16 12:23:46;;;;;;;25.67;23.70;;;20.00;54.80;;;;;;5045287;28;20544;-66
2021/10/16 12:26:21;;;;;;;24.50;22.33;;;19.20;56.10;;;;;;5058848;28;21214;-64
2021/10/16 12:28:49;;;;;;;27.03;25.13;;;18.50;58.00;;;;;;5058750;28;20462;-65
2021/10/16 12:31:17;;;;;;;26.97;24.90;;;18.60;59.20;;;;;;5059022;28;20458;-64
2021/10/16 12:34:02;;;;;;;25.90;24.03;;;18.30;60.10;;;;;;5059416;28;20481;-63
2021/10/16 12:36:34;;;;;;;26.83;24.47;;;17.50;62.90;;;;;;5042592;28;20447;-63
2021/10/16 12:39:02;;;;;;;26.63;24.33;;;17.00;66.80;;;;;;5042371;28;20793;-65
2021/10/16 12:41:33;;;;;;;24.90;22.80;;;17.10;70.40;;;;;;5057104;28;20479;-63
2021/10/16 12:44:14;;;;;;;22.13;20.50;;;17.10;71.30;;;;;;5062378;28;20438;-66